createdAt,value
2023-03-06T00:00:17.480Z,97437.25
2023-03-06T00:04:17.147Z,97432.86
2023-03-06T00:08:05.331Z,97426.44
2023-03-06T00:11:48.501Z,97420.08
2023-03-06T00:15:24.464Z,97410.19
2023-03-06T00:19:12.714Z,97404.10
2023-03-06T00:22:56.508Z,97401.66
2023-03-06T00:26:44.580Z,97409.01
2023-03-06T00:30:35.668Z,97408.75
2023-03-06T00:34:23.428Z,97401.99
2023-03-06T00:38:11.498Z,97405.89
2023-03-06T00:41:54.545Z,97410.52
2023-03-06T00:45:22.673Z,97416.89
2023-03-06T00:48:23.304Z,97416.89
2023-03-06T00:50:53.382Z,97413.87
2023-03-06T00:53:21.377Z,97413.70
2023-03-06T00:56:30.461Z,97416.66
2023-03-06T01:00:00.923Z,97413.55
2023-03-06T01:03:49.427Z,97412.65
2023-03-06T01:07:17.816Z,97417.56
2023-03-06T01:11:05.766Z,97414.21
2023-03-06T01:14:34.595Z,97416.95
2023-03-06T01:18:10.417Z,97420.34
2023-03-06T01:21:59.000Z,97424.59
2023-03-06T01:25:47.924Z,97423.05
2023-03-06T01:28:16.492Z,97421.14
2023-03-06T01:30:44.601Z,97420.97
2023-03-06T01:34:13.208Z,97405.44
2023-03-06T01:37:58.134Z,97398.90
2023-03-06T01:41:34.021Z,97401.52
2023-03-06T01:45:31.900Z,97403.85
2023-03-06T01:49:20.660Z,97399.08
2023-03-06T01:53:09.431Z,97393.89
2023-03-06T01:56:57.895Z,97390.70
2023-03-06T02:00:47.176Z,97384.48
2023-03-06T02:04:36.890Z,97385.05
2023-03-06T02:08:26.196Z,97382.02
2023-03-06T02:12:14.591Z,97389.30
2023-03-06T02:16:03.543Z,97384.79
2023-03-06T02:19:19.392Z,97381.91
2023-03-06T02:23:09.686Z,97385.05
2023-03-06T02:26:40.557Z,97380.11
2023-03-06T02:30:13.739Z,97375.80
2023-03-06T02:34:02.440Z,97374.17
2023-03-06T02:37:50.313Z,97371.95
2023-03-06T02:41:38.966Z,97373.89
2023-03-06T02:44:29.584Z,97374.98
2023-03-06T02:46:57.755Z,97377.38
2023-03-06T02:50:25.978Z,97372.23
2023-03-06T02:53:23.075Z,97369.10
2023-03-06T02:57:12.137Z,97375.53
2023-03-06T03:01:00.720Z,97381.07
2023-03-06T03:04:33.718Z,97373.41
2023-03-06T03:08:22.431Z,97375.94
2023-03-06T03:11:54.690Z,97379.95
2023-03-06T03:15:25.396Z,97379.79
2023-03-06T03:18:53.962Z,97376.19
2023-03-06T03:22:22.509Z,97365.02
2023-03-06T03:26:11.893Z,97358.89
2023-03-06T03:30:00.096Z,97357.24
2023-03-06T03:33:49.116Z,97356.98
2023-03-06T03:36:18.650Z,97355.16
2023-03-06T03:38:47.691Z,97346.95
2023-03-06T03:42:16.229Z,97346.39
2023-03-06T03:46:05.611Z,97342.56
2023-03-06T03:49:53.813Z,97332.52
2023-03-06T03:53:23.284Z,97333.90
2023-03-06T03:57:12.159Z,97334.96
2023-03-06T04:01:00.763Z,97329.77
2023-03-06T04:04:18.669Z,97331.84
2023-03-06T04:07:47.837Z,97329.36
2023-03-06T04:11:36.334Z,97322.06
2023-03-06T04:14:56.021Z,97323.44
2023-03-06T04:18:44.708Z,97318.95
2023-03-06T04:22:32.908Z,97321.10
2023-03-06T04:26:05.866Z,97317.05
2023-03-06T04:29:19.091Z,97317.84
2023-03-06T04:32:51.899Z,97307.34
2023-03-06T04:36:40.627Z,97310.86
2023-03-06T04:40:29.285Z,97301.48
2023-03-06T04:44:17.786Z,97292.02
2023-03-06T04:47:53.229Z,97295.38
2023-03-06T04:51:40.942Z,97299.86
2023-03-06T04:55:10.167Z,97302.02
2023-03-06T04:58:58.462Z,97297.52
2023-03-06T05:02:34.380Z,97293.10
2023-03-06T05:05:52.934Z,97284.38
2023-03-06T05:09:29.664Z,97280.13
2023-03-06T05:11:58.544Z,97282.44
2023-03-06T05:14:29.950Z,97282.33
2023-03-06T05:16:59.074Z,97276.14
2023-03-06T05:19:27.234Z,97278.55
2023-03-06T05:21:55.459Z,97276.06
2023-03-06T05:24:23.557Z,97275.52
2023-03-06T05:27:33.969Z,97275.02
2023-03-06T05:30:38.898Z,97268.17
2023-03-06T05:33:06.917Z,97271.30
2023-03-06T05:35:35.126Z,97264.80
2023-03-06T05:38:42.258Z,97263.88
2023-03-06T05:41:31.223Z,97270.40
2023-03-06T05:44:45.266Z,97266.30
2023-03-06T05:47:31.878Z,97267.45
2023-03-06T05:50:09.126Z,97268.08
2023-03-06T05:53:03.060Z,97267.91
2023-03-06T05:56:33.133Z,97270.41
2023-03-06T05:59:21.956Z,97270.29
2023-03-06T06:01:49.972Z,97272.94
2023-03-06T06:04:17.943Z,97276.55
2023-03-06T06:06:46.086Z,97273.62
2023-03-06T06:09:57.650Z,97273.56
2023-03-06T06:13:04.115Z,97272.84
2023-03-06T06:16:09.973Z,97273.58
2023-03-06T06:19:08.922Z,97270.45
2023-03-06T06:21:40.833Z,97265.92
2023-03-06T06:24:08.991Z,97271.92
2023-03-06T06:26:36.998Z,97274.94
2023-03-06T06:29:05.475Z,97272.31
2023-03-06T06:31:33.653Z,97273.23
2023-03-06T06:34:01.799Z,97257.40
2023-03-06T06:36:29.926Z,97273.07
2023-03-06T06:38:58.255Z,97275.08
2023-03-06T06:41:42.633Z,97276.73
2023-03-06T06:44:16.325Z,97274.91
2023-03-06T06:49:34.641Z,97276.16
2023-03-06T06:53:03.022Z,97271.38
2023-03-06T06:56:31.073Z,97273.21
2023-03-06T07:00:07.260Z,97271.28
2023-03-06T07:03:50.816Z,97265.95
2023-03-06T07:07:08.176Z,97267.80
2023-03-06T07:10:17.674Z,97273.95
2023-03-06T07:13:17.456Z,97276.66
2023-03-06T07:16:08.558Z,97279.54
2023-03-06T07:18:53.517Z,97285.11
2023-03-06T07:21:21.738Z,97284.24
2023-03-06T07:23:49.880Z,97284.35
2023-03-06T07:26:17.953Z,97284.49
2023-03-06T07:28:55.115Z,97286.29
2023-03-06T07:31:44.493Z,97281.09
2023-03-06T07:34:55.161Z,97286.51
2023-03-06T07:37:28.662Z,97286.19
2023-03-06T07:39:56.771Z,97283.80
2023-03-06T07:43:16.883Z,97288.73
2023-03-06T07:46:40.479Z,97287.23
2023-03-06T07:49:09.032Z,97288.75
2023-03-06T07:51:41.657Z,97294.27
2023-03-06T07:54:47.039Z,97291.39
2023-03-06T07:57:15.560Z,97293.59
2023-03-06T07:59:43.573Z,97292.51
2023-03-06T08:02:12.429Z,97296.10
2023-03-06T08:04:40.588Z,97294.11
2023-03-06T08:07:09.379Z,97296.30
2023-03-06T08:09:37.519Z,97293.80
2023-03-06T08:12:06.015Z,97296.00
2023-03-06T08:14:35.274Z,97293.03
2023-03-06T08:17:03.505Z,97297.68
2023-03-06T08:19:31.788Z,97294.05
2023-03-06T08:21:59.969Z,97290.59
2023-03-06T08:24:28.296Z,97284.52
2023-03-06T08:26:56.498Z,97287.95
2023-03-06T08:29:24.806Z,97290.58
2023-03-06T08:31:53.446Z,97290.24
2023-03-06T08:34:24.729Z,97293.24
2023-03-06T08:36:53.679Z,97294.08
2023-03-06T08:39:23.850Z,97290.93
2023-03-06T08:41:51.994Z,97293.50
2023-03-06T08:44:26.413Z,97296.51
2023-03-06T08:46:54.659Z,97297.39
2023-03-06T08:49:22.910Z,97296.42
2023-03-06T08:51:51.082Z,97303.16
2023-03-06T08:54:19.296Z,97304.67
2023-03-06T08:56:47.699Z,97306.10
2023-03-06T08:59:15.697Z,97306.81
2023-03-06T09:01:45.351Z,97307.55
2023-03-06T09:04:14.127Z,97306.68
2023-03-06T09:06:43.437Z,97306.47
2023-03-06T09:09:13.589Z,97308.32
2023-03-06T09:11:41.819Z,97309.52
2023-03-06T09:14:09.727Z,97309.21
2023-03-06T09:16:37.806Z,97308.34
2023-03-06T09:19:05.959Z,97310.48
2023-03-06T09:21:34.071Z,97304.22
2023-03-06T09:24:02.360Z,97305.30
2023-03-06T09:26:45.119Z,97306.96
2023-03-06T09:29:16.527Z,97301.27
2023-03-06T09:31:45.929Z,97303.38
2023-03-06T09:34:14.883Z,97304.39
2023-03-06T09:36:55.838Z,97308.89
2023-03-06T09:39:26.563Z,97307.69
2023-03-06T09:41:57.423Z,97304.70
2023-03-06T09:44:58.939Z,97305.79
2023-03-06T09:47:43.429Z,97300.54
2023-03-06T09:50:26.880Z,97304.38
2023-03-06T09:53:20.874Z,97305.30
2023-03-06T09:55:58.395Z,97298.73
2023-03-06T09:58:29.964Z,97300.06
2023-03-06T10:01:04.607Z,97298.49
2023-03-06T10:03:45.271Z,97292.52
2023-03-06T10:06:56.813Z,97293.98
2023-03-06T10:09:47.078Z,97297.23
2023-03-06T10:12:24.938Z,97292.86
2023-03-06T10:15:04.668Z,97292.20
2023-03-06T10:17:41.971Z,97293.19
2023-03-06T10:20:28.006Z,97290.60
2023-03-06T10:23:15.099Z,97292.23
2023-03-06T10:26:01.758Z,97286.96
2023-03-06T10:29:04.527Z,97287.02
2023-03-06T10:31:34.726Z,97282.65
2023-03-06T10:34:05.831Z,97276.88
2023-03-06T10:36:33.844Z,97275.52
2023-03-06T10:39:14.218Z,97271.27
2023-03-06T10:41:44.111Z,97271.64
2023-03-06T10:44:12.632Z,97266.31
2023-03-06T10:46:43.519Z,97263.84
2023-03-06T10:49:28.803Z,97258.44
2023-03-06T10:52:05.751Z,97264.56
2023-03-06T10:54:37.930Z,97261.71
2023-03-06T10:57:26.299Z,97254.73
2023-03-06T11:00:06.567Z,97251.06
2023-03-06T11:02:38.684Z,97252.65
2023-03-06T11:05:19.500Z,97242.92
2023-03-06T11:07:59.607Z,97243.71
2023-03-06T11:10:29.449Z,97242.64
2023-03-06T11:13:07.899Z,97238.08
2023-03-06T11:15:36.380Z,97230.62
2023-03-06T11:18:28.641Z,97223.47
2023-03-06T11:20:57.279Z,97214.59
2023-03-06T11:23:46.789Z,97217.74
2023-03-06T11:26:17.908Z,97217.02
2023-03-06T11:29:02.864Z,97216.08
2023-03-06T11:31:43.145Z,97212.88
2023-03-06T11:34:41.931Z,97208.38
2023-03-06T11:37:29.028Z,97203.63
2023-03-06T11:40:10.394Z,97198.73
2023-03-06T11:43:03.196Z,97192.80
2023-03-06T11:46:05.333Z,97192.27
2023-03-06T11:48:46.340Z,97190.60
2023-03-06T11:51:21.527Z,97187.94
2023-03-06T11:53:49.646Z,97185.63
2023-03-06T11:56:33.018Z,97183.02
2023-03-06T11:59:22.980Z,97178.68
2023-03-06T12:01:58.150Z,97176.73
2023-03-06T12:04:52.672Z,97172.45
2023-03-06T12:07:36.223Z,97170.18
2023-03-06T12:10:18.238Z,97171.67
2023-03-06T12:13:06.118Z,97169.03
2023-03-06T12:16:02.452Z,97153.06
2023-03-06T12:18:37.386Z,97155.36
2023-03-06T12:21:34.467Z,97153.94
2023-03-06T12:24:18.005Z,97148.70
2023-03-06T12:26:55.268Z,97143.35
2023-03-06T12:29:38.320Z,97139.36
2023-03-06T12:32:25.282Z,97140.20
2023-03-06T12:34:59.555Z,97132.38
2023-03-06T12:37:53.321Z,97129.10
2023-03-06T12:40:44.378Z,97126.70
2023-03-06T12:43:43.592Z,97124.21
2023-03-06T12:46:21.848Z,97114.83
2023-03-06T12:49:09.232Z,97113.75
2023-03-06T12:51:39.946Z,97113.06
2023-03-06T12:54:14.172Z,97106.96
2023-03-06T12:56:43.590Z,97105.95
2023-03-06T13:00:14.904Z,97105.63
2023-03-06T13:02:52.455Z,97096.61
2023-03-06T13:05:32.584Z,97089.98
2023-03-06T13:08:18.573Z,97090.65
2023-03-06T13:11:10.796Z,97091.38
2023-03-06T13:13:44.493Z,97082.99
2023-03-06T13:16:18.920Z,97086.77
2023-03-06T13:19:02.120Z,97086.64
2023-03-06T13:21:42.500Z,97084.57
2023-03-06T13:24:33.870Z,97083.00
2023-03-06T13:27:02.995Z,97076.89
2023-03-06T13:29:37.376Z,97078.05
2023-03-06T13:32:07.861Z,97071.97
2023-03-06T13:34:47.175Z,97073.77
2023-03-06T13:37:23.132Z,97078.23
2023-03-06T13:39:54.366Z,97081.24
2023-03-06T13:42:45.574Z,97077.33
2023-03-06T13:45:30.321Z,97073.20
2023-03-06T13:50:48.716Z,97065.36
2023-03-06T13:53:38.247Z,97063.81
2023-03-06T13:56:28.095Z,97062.27
2023-03-06T13:59:20.300Z,97055.29
2023-03-06T14:02:23.973Z,97056.81
2023-03-06T14:04:56.768Z,97057.13
2023-03-06T14:07:28.120Z,97055.41
2023-03-06T14:10:15.518Z,97058.85
2023-03-06T14:12:52.523Z,97060.93
2023-03-06T14:15:24.612Z,97057.79
2023-03-06T14:18:45.062Z,97060.35
2023-03-06T14:21:16.092Z,97057.27
2023-03-06T14:23:46.135Z,97060.91
2023-03-06T14:26:22.219Z,97061.73
2023-03-06T14:28:52.955Z,97056.47
2023-03-06T14:31:24.155Z,97056.25
2023-03-06T14:34:06.959Z,97057.61
2023-03-06T14:36:44.030Z,97054.00
2023-03-06T14:39:21.761Z,97067.70
2023-03-06T14:41:49.876Z,97083.00
2023-03-06T14:44:26.613Z,97097.48
2023-03-06T14:46:57.407Z,97094.02
2023-03-06T14:49:26.955Z,97089.31
2023-03-06T14:52:00.594Z,97099.04
2023-03-06T14:54:32.172Z,97098.71
2023-03-06T14:57:11.976Z,97098.09
2023-03-06T14:59:49.029Z,97093.86
2023-03-06T15:02:22.903Z,97093.34
2023-03-06T15:05:00.326Z,97096.80
2023-03-06T15:07:32.722Z,97091.61
2023-03-06T15:10:01.195Z,97089.09
2023-03-06T15:12:35.590Z,97090.34
2023-03-06T15:15:12.842Z,97091.88
2023-03-06T15:17:43.172Z,97091.17
2023-03-06T15:20:30.073Z,97087.23
2023-03-06T15:22:58.130Z,97086.20
2023-03-06T15:25:30.242Z,97085.55
2023-03-06T15:28:01.065Z,97086.04
2023-03-06T15:30:34.444Z,97087.51
2023-03-06T15:33:11.427Z,97088.56
2023-03-06T15:35:39.744Z,97086.66
2023-03-06T15:38:24.805Z,97090.17
2023-03-06T15:40:58.905Z,97089.76
2023-03-06T15:43:31.696Z,97091.50
2023-03-06T15:46:01.353Z,97091.14
2023-03-06T15:48:29.470Z,97085.48
2023-03-06T15:50:57.678Z,97086.41
2023-03-06T15:53:25.589Z,97081.68
2023-03-06T15:55:53.777Z,97079.45
2023-03-06T15:58:24.976Z,97070.48
2023-03-06T16:00:53.307Z,97068.64
2023-03-06T16:03:21.663Z,97077.38
2023-03-06T16:05:49.929Z,97074.81
2023-03-06T16:08:18.094Z,97078.65
2023-03-06T16:10:48.084Z,97080.29
2023-03-06T16:13:22.520Z,97080.38
2023-03-06T16:15:50.864Z,97078.66
2023-03-06T16:18:18.894Z,97081.36
2023-03-06T16:20:47.265Z,97081.25
2023-03-06T16:23:16.601Z,97082.89
2023-03-06T16:25:48.913Z,97082.95
2023-03-06T16:28:17.097Z,97078.44
2023-03-06T16:30:45.885Z,97079.97
2023-03-06T16:33:14.552Z,97077.67
2023-03-06T16:35:44.563Z,97081.45
2023-03-06T16:38:12.897Z,97077.65
2023-03-06T16:40:43.702Z,97080.45
2023-03-06T16:43:13.620Z,97076.81
2023-03-06T16:45:42.636Z,97068.96
2023-03-06T16:48:15.877Z,97072.98
2023-03-06T16:50:44.430Z,97066.16
2023-03-06T16:53:12.503Z,97060.48
2023-03-06T16:55:40.593Z,97060.81
2023-03-06T16:58:08.883Z,97058.98
2023-03-06T17:00:37.089Z,97063.59
2023-03-06T17:03:05.152Z,97063.58
2023-03-06T17:05:34.895Z,97063.99
2023-03-06T17:08:03.744Z,97064.66
2023-03-06T17:10:32.137Z,97065.30
2023-03-06T17:13:00.449Z,97067.23
2023-03-06T17:15:28.416Z,97064.04
2023-03-06T17:17:57.918Z,97068.09
2023-03-06T17:20:26.373Z,97073.40
2023-03-06T17:22:55.189Z,97082.41
2023-03-06T17:25:23.867Z,97080.02
2023-03-06T17:27:51.879Z,97077.40
2023-03-06T17:30:20.008Z,97078.27
2023-03-06T17:32:48.956Z,97080.49
2023-03-06T17:35:54.239Z,97081.08
2023-03-06T17:38:23.493Z,97081.45
2023-03-06T17:40:51.770Z,97082.27
2023-03-06T17:43:21.237Z,97084.23
2023-03-06T17:45:49.736Z,97090.38
2023-03-06T17:48:17.710Z,97087.70
2023-03-06T17:50:54.064Z,97093.13
2023-03-06T17:53:23.255Z,97093.09
2023-03-06T17:55:56.609Z,97096.03
2023-03-06T17:58:26.562Z,97096.17
2023-03-06T18:00:54.751Z,97099.55
2023-03-06T18:03:23.049Z,97102.16
2023-03-06T18:06:02.420Z,97099.98
2023-03-06T18:08:31.085Z,97100.79
2023-03-06T18:11:00.245Z,97095.37
2023-03-06T18:13:28.175Z,97097.43
2023-03-06T18:15:57.926Z,97100.30
2023-03-06T18:18:28.390Z,97101.94
2023-03-06T18:20:56.675Z,97101.66
2023-03-06T18:23:26.852Z,97100.95
2023-03-06T18:26:14.923Z,97099.33
2023-03-06T18:28:46.407Z,97099.64
2023-03-06T18:31:20.761Z,97104.82
2023-03-06T18:33:49.660Z,97106.25
2023-03-06T18:36:18.751Z,97114.67
2023-03-06T18:38:48.297Z,97121.66
2023-03-06T18:41:17.772Z,97125.02
2023-03-06T18:43:50.922Z,97121.64
2023-03-06T18:46:18.971Z,97123.45
2023-03-06T18:48:47.019Z,97118.59
2023-03-06T18:51:15.519Z,97113.58
2023-03-06T18:53:44.220Z,97116.70
2023-03-06T18:56:31.064Z,97115.02
2023-03-06T18:59:07.027Z,97110.98
2023-03-06T19:01:35.717Z,97107.02
2023-03-06T19:04:04.829Z,97105.30
2023-03-06T19:07:17.586Z,97105.71
2023-03-06T19:09:48.611Z,97105.84
2023-03-06T19:12:17.602Z,97103.66
2023-03-06T19:14:45.637Z,97105.16
2023-03-06T19:17:13.835Z,97101.34
2023-03-06T19:19:41.959Z,97099.61
2023-03-06T19:22:10.272Z,97093.07
2023-03-06T19:24:38.310Z,97101.73
2023-03-06T19:27:06.324Z,97099.33
2023-03-06T19:29:34.342Z,97102.13
2023-03-06T19:32:02.460Z,97097.56
2023-03-06T19:34:30.580Z,97097.08
2023-03-06T19:36:58.592Z,97095.35
2023-03-06T19:39:26.811Z,97091.83
2023-03-06T19:41:54.824Z,97091.99
2023-03-06T19:44:23.495Z,97088.05
2023-03-06T19:46:51.404Z,97088.45
2023-03-06T19:49:21.974Z,97085.28
2023-03-06T19:51:49.923Z,97081.73
2023-03-06T19:54:18.400Z,97085.69
2023-03-06T19:56:46.604Z,97085.95
2023-03-06T19:59:14.757Z,97082.79
2023-03-06T20:01:42.856Z,97078.75
2023-03-06T20:04:11.069Z,97078.30
2023-03-06T20:06:39.230Z,97076.42
2023-03-06T20:09:08.819Z,97081.10
2023-03-06T20:11:37.916Z,97081.16
2023-03-06T20:14:07.619Z,97082.12
2023-03-06T20:16:36.188Z,97086.29
2023-03-06T20:19:04.959Z,97076.46
2023-03-06T20:21:37.605Z,97084.68
2023-03-06T20:24:07.699Z,97082.81
2023-03-06T20:26:37.820Z,97083.24
2023-03-06T20:29:05.921Z,97082.34
2023-03-06T20:31:34.034Z,97081.08
2023-03-06T20:34:03.724Z,97080.45
2023-03-06T20:36:36.194Z,97076.66
2023-03-06T20:39:09.125Z,97079.48
2023-03-06T20:41:37.904Z,97077.52
2023-03-06T20:44:08.127Z,97083.21
2023-03-06T20:46:36.371Z,97084.84
2023-03-06T20:49:05.067Z,97084.41
2023-03-06T20:51:36.419Z,97083.07
2023-03-06T20:54:05.199Z,97087.84
2023-03-06T20:56:35.752Z,97084.46
2023-03-06T20:59:04.023Z,97088.41
2023-03-06T21:01:35.644Z,97085.44
2023-03-06T21:04:04.724Z,97083.12
2023-03-06T21:06:33.469Z,97080.75
2023-03-06T21:09:02.781Z,97080.83
2023-03-06T21:11:31.119Z,97081.14
2023-03-06T21:13:59.043Z,97079.89
2023-03-06T21:16:27.854Z,97080.89
2023-03-06T21:18:57.821Z,97078.98
2023-03-06T21:21:29.402Z,97079.22
2023-03-06T21:23:57.922Z,97076.88
2023-03-06T21:26:28.294Z,97077.77
2023-03-06T21:29:24.540Z,97079.60
2023-03-06T21:33:05.629Z,97078.73
2023-03-06T21:35:49.897Z,97080.48
2023-03-06T21:38:38.454Z,97077.20
2023-03-06T21:41:46.730Z,97075.70
2023-03-06T21:44:35.077Z,97075.73
2023-03-06T21:47:03.157Z,97080.73
2023-03-06T21:49:42.716Z,97074.20
2023-03-06T21:52:10.923Z,97080.30
2023-03-06T21:54:38.957Z,97082.35
2023-03-06T21:57:06.907Z,97077.61
2023-03-06T21:59:57.589Z,97079.48
2023-03-06T22:02:47.555Z,97078.94
2023-03-06T22:06:17.699Z,97069.30
2023-03-06T22:09:27.768Z,97066.71
2023-03-06T22:11:59.574Z,97066.27
2023-03-06T22:14:29.498Z,97064.39
2023-03-06T22:16:57.616Z,97058.40
2023-03-06T22:19:25.713Z,97061.91
2023-03-06T22:22:33.666Z,97063.46
2023-03-06T22:25:01.802Z,97063.43
2023-03-06T22:27:30.254Z,97059.24
2023-03-06T22:29:58.575Z,97063.64
2023-03-06T22:32:26.770Z,97059.10
2023-03-06T22:35:39.767Z,97057.77
2023-03-06T22:38:16.893Z,97061.42
2023-03-06T22:41:01.891Z,97057.26
2023-03-06T22:43:31.665Z,97057.27
2023-03-06T22:46:12.195Z,97057.55
2023-03-06T22:48:41.055Z,97057.55
2023-03-06T22:51:17.168Z,97059.41
2023-03-06T22:53:46.737Z,97061.77
2023-03-06T22:56:17.433Z,97062.75
2023-03-06T22:58:46.503Z,97059.30
2023-03-06T23:01:20.008Z,97062.45
2023-03-06T23:03:51.011Z,97061.92
2023-03-06T23:06:24.639Z,97058.03
2023-03-06T23:09:07.081Z,97056.48
2023-03-06T23:12:13.749Z,97057.09
2023-03-06T23:15:07.545Z,97060.29
2023-03-06T23:18:36.357Z,97056.17
2023-03-06T23:21:41.365Z,97060.52
2023-03-06T23:24:28.867Z,97057.53
2023-03-06T23:26:56.921Z,97055.77
2023-03-06T23:29:25.026Z,97057.77
2023-03-06T23:32:28.838Z,97042.55
2023-03-06T23:35:01.374Z,97055.82
2023-03-06T23:37:29.856Z,97054.62
2023-03-06T23:39:58.086Z,97057.49
2023-03-06T23:42:35.618Z,97060.12
2023-03-06T23:45:25.147Z,97059.88
2023-03-06T23:47:53.652Z,97060.13
2023-03-06T23:50:23.266Z,97058.61
2023-03-06T23:53:24.105Z,97059.05
2023-03-06T23:55:53.398Z,97054.86
2023-03-06T23:58:21.850Z,97054.39
